Time;durP1;ratioP1;P1;durP2;ratioP2;P2;SDS_P1;SDS_P2;PMS_P1;PMS_P2;Temp;Humidity;BMP_temperature;BMP_pressure;BME280_temperature;BME280_humidity;BME280_pressure;Samples;Min_cycle;Max_cycle;Signal;HPM_P1;HPM_P2
2021/06/19 02:35:58;;;;;;;27.60;25.47;;;26.10;98.30;;;;;;4156655;28;20509;-84
2021/06/19 02:58:55;;;;;;;30.53;27.93;;;24.90;98.30;;;;;;3962834;29;20513;-84
2021/06/19 03:01:08;;;;;;;32.77;29.77;;;25.20;98.30;;;;;;3981297;29;20500;-85
2021/06/19 03:06:41;;;;;;;32.47;29.40;;;25.40;98.30;;;;;;4061360;29;20929;-85
2021/06/19 03:08:44;;;;;;;29.70;27.10;;;25.50;98.30;;;;;;4078358;29;20552;-72
2021/06/19 03:10:47;;;;;;;33.07;29.70;;;25.60;98.30;;;;;;4078216;29;20600;-72
2021/06/19 03:12:50;;;;;;;30.33;27.70;;;25.70;98.30;;;;;;4078379;29;21225;-72
2021/06/19 03:14:55;;;;;;;30.50;27.90;;;25.60;98.30;;;;;;4078049;29;20521;-72
2021/06/19 03:16:57;;;;;;;29.03;26.73;;;25.50;98.30;;;;;;4078562;29;20469;-72
2021/06/19 03:19:01;;;;;;;30.60;28.20;;;25.30;98.30;;;;;;4082607;28;20502;-72
2021/06/19 03:21:04;;;;;;;28.80;26.50;;;25.30;98.30;;;;;;4144492;28;20485;-72
2021/06/19 03:23:07;;;;;;;31.00;28.33;;;25.20;98.30;;;;;;4142990;28;20537;-72
2021/06/19 03:25:11;;;;;;;29.23;26.93;;;25.20;98.30;;;;;;4141781;28;20969;-72
2021/06/19 03:27:17;;;;;;;29.47;26.83;;;25.10;98.30;;;;;;4144317;28;21187;-72
2021/06/19 03:29:20;;;;;;;28.70;26.40;;;25.10;98.30;;;;;;4144010;28;20508;-72
2021/06/19 03:31:26;;;;;;;29.60;27.20;;;25.00;98.30;;;;;;4142951;28;20888;-72
2021/06/19 03:33:29;;;;;;;29.13;26.63;;;24.80;98.30;;;;;;4142974;28;21208;-72
2021/06/19 03:35:32;;;;;;;30.30;27.90;;;24.70;98.30;;;;;;4144273;28;20485;-72
2021/06/19 03:37:36;;;;;;;30.10;27.67;;;24.80;98.30;;;;;;4143576;28;20462;-72
2021/06/19 03:39:38;;;;;;;29.03;26.60;;;24.70;98.30;;;;;;4143353;28;20981;-72
2021/06/19 03:41:41;;;;;;;28.57;26.30;;;24.60;98.30;;;;;;4144575;28;20497;-72
2021/06/19 03:43:44;;;;;;;29.20;26.60;;;24.70;98.30;;;;;;4144464;28;20932;-72
2021/06/19 03:45:47;;;;;;;30.03;27.47;;;24.80;98.30;;;;;;4144660;28;20478;-72
2021/06/19 03:47:53;;;;;;;28.53;26.30;;;24.80;98.30;;;;;;4144039;28;20469;-72
2021/06/19 03:49:56;;;;;;;30.37;27.87;;;24.80;98.30;;;;;;4144624;28;20478;-72
2021/06/19 03:51:59;;;;;;;29.70;27.47;;;24.80;98.30;;;;;;4144601;28;20470;-72
2021/06/19 03:54:01;;;;;;;30.70;28.03;;;24.80;98.30;;;;;;4144554;28;20498;-72
2021/06/19 03:56:05;;;;;;;30.13;27.70;;;24.80;98.30;;;;;;4147533;28;20474;-72
2021/06/19 03:58:07;;;;;;;30.00;27.57;;;24.60;98.30;;;;;;4148259;28;20520;-72
2021/06/19 04:00:13;;;;;;;32.40;29.60;;;24.60;98.30;;;;;;4147920;28;21231;-72
2021/06/19 04:02:16;;;;;;;29.60;27.20;;;24.60;98.30;;;;;;4147202;28;20500;-72
2021/06/19 04:04:20;;;;;;;30.87;28.20;;;24.60;98.30;;;;;;4147308;28;20551;-72
2021/06/19 04:06:24;;;;;;;31.43;28.93;;;24.60;98.30;;;;;;4147899;28;20461;-72
2021/06/19 04:08:27;;;;;;;29.77;27.17;;;24.60;98.30;;;;;;4147000;28;20469;-72
2021/06/19 04:10:30;;;;;;;29.50;27.20;;;24.70;98.30;;;;;;4146985;28;20481;-72
2021/06/19 04:12:33;;;;;;;31.00;28.47;;;24.80;98.30;;;;;;4147218;28;20478;-72
2021/06/19 04:14:35;;;;;;;31.93;29.30;;;24.70;98.30;;;;;;4147070;28;20489;-72
2021/06/19 04:16:38;;;;;;;30.50;28.20;;;24.90;98.30;;;;;;4146926;28;20465;-72
2021/06/19 04:18:42;;;;;;;32.67;30.03;;;24.90;98.30;;;;;;4147333;28;20509;-72
2021/06/19 04:20:46;;;;;;;32.33;29.30;;;24.90;98.30;;;;;;4147581;28;21030;-72
2021/06/19 04:22:49;;;;;;;34.40;31.67;;;24.80;98.30;;;;;;4146316;28;20469;-72
2021/06/19 04:24:51;;;;;;;33.43;30.63;;;24.90;98.30;;;;;;4147889;28;20486;-72
2021/06/19 04:26:54;;;;;;;33.43;30.83;;;24.90;98.30;;;;;;4147005;28;20477;-72
2021/06/19 04:28:57;;;;;;;34.80;32.10;;;24.90;98.30;;;;;;4146237;28;20470;-73
2021/06/19 04:31:01;;;;;;;34.70;31.43;;;25.00;98.30;;;;;;4147145;28;20470;-72
2021/06/19 04:33:09;;;;;;;35.60;32.70;;;24.90;98.30;;;;;;4146420;28;20477;-72
2021/06/19 04:35:14;;;;;;;36.77;33.97;;;25.00;98.30;;;;;;4147313;28;20473;-72
2021/06/19 04:37:18;;;;;;;33.90;31.20;;;25.10;98.30;;;;;;4147098;28;20476;-72
2021/06/19 04:39:21;;;;;;;35.80;32.80;;;25.00;98.30;;;;;;4146751;28;20476;-72
2021/06/19 04:41:28;;;;;;;35.03;32.23;;;25.00;98.30;;;;;;4146815;28;20520;-72
2021/06/19 04:43:40;;;;;;;33.80;30.90;;;25.00;98.30;;;;;;4147518;28;20868;-72
2021/06/19 04:45:43;;;;;;;34.50;31.80;;;25.00;98.30;;;;;;4147093;28;20474;-72
2021/06/19 04:47:46;;;;;;;36.50;33.37;;;25.10;98.30;;;;;;4145825;28;20469;-72
2021/06/19 04:49:49;;;;;;;35.53;32.70;;;25.10;98.30;;;;;;4146275;28;20532;-72
2021/06/19 04:51:52;;;;;;;36.30;33.40;;;25.20;98.30;;;;;;4147075;28;20458;-72
2021/06/19 04:53:56;;;;;;;34.00;31.30;;;25.20;98.30;;;;;;4146400;28;20497;-72
2021/06/19 04:56:02;;;;;;;37.40;34.30;;;25.30;98.30;;;;;;4146756;28;20478;-72
2021/06/19 04:58:05;;;;;;;35.33;32.43;;;25.30;98.30;;;;;;4147485;28;20474;-72
2021/06/19 05:00:09;;;;;;;38.33;35.07;;;25.30;98.30;;;;;;4147330;28;20469;-72
2021/06/19 05:02:12;;;;;;;37.47;34.37;;;25.30;98.30;;;;;;4145623;28;21065;-72
2021/06/19 05:04:15;;;;;;;37.03;34.03;;;25.20;98.30;;;;;;4146337;28;20547;-72
2021/06/19 05:06:21;;;;;;;37.33;34.27;;;25.20;98.30;;;;;;4145654;28;20470;-72
2021/06/19 05:08:24;;;;;;;36.20;33.30;;;25.30;98.30;;;;;;4145905;28;20520;-72
2021/06/19 05:10:29;;;;;;;35.43;32.70;;;25.30;98.30;;;;;;4145754;28;20479;-72
2021/06/19 05:12:32;;;;;;;39.73;36.03;;;25.30;98.30;;;;;;4146157;28;20556;-72
2021/06/19 05:14:36;;;;;;;38.40;35.27;;;25.30;98.30;;;;;;4146204;28;20546;-72
2021/06/19 05:16:39;;;;;;;37.90;34.80;;;25.30;98.30;;;;;;4144648;28;20873;-72
2021/06/19 05:18:42;;;;;;;38.27;35.17;;;25.30;98.30;;;;;;4145847;28;20474;-72
2021/06/19 05:20:45;;;;;;;36.13;33.10;;;25.30;98.30;;;;;;4145638;28;20481;-72
2021/06/19 05:22:48;;;;;;;39.87;36.67;;;25.40;98.30;;;;;;4145845;28;20552;-72
2021/06/19 05:24:52;;;;;;;37.27;33.87;;;25.50;98.30;;;;;;4143436;28;20485;-72
2021/06/19 05:26:56;;;;;;;38.53;35.33;;;25.50;98.30;;;;;;4144954;28;20485;-72
2021/06/19 05:28:59;;;;;;;40.17;37.00;;;25.60;98.30;;;;;;4145729;28;20473;-72
2021/06/19 05:31:03;;;;;;;39.67;36.20;;;25.60;98.30;;;;;;4146039;28;21123;-72
2021/06/19 05:33:06;;;;;;;41.70;38.10;;;25.60;98.30;;;;;;4145542;28;20818;-72
2021/06/19 05:35:10;;;;;;;39.60;36.30;;;25.60;98.30;;;;;;4146402;28;20478;-72
2021/06/19 05:37:12;;;;;;;40.23;36.73;;;25.60;98.30;;;;;;4145981;28;20473;-72
2021/06/19 05:39:15;;;;;;;40.50;36.63;;;25.60;98.30;;;;;;4145140;28;20520;-72
2021/06/19 05:41:18;;;;;;;39.80;36.27;;;25.70;98.30;;;;;;4145479;28;20470;-72
2021/06/19 05:43:22;;;;;;;38.17;34.93;;;25.70;98.30;;;;;;4145888;28;20498;-72
2021/06/19 05:45:25;;;;;;;37.37;33.53;;;25.60;98.30;;;;;;4145918;28;21044;-72
2021/06/19 05:47:28;;;;;;;38.90;35.40;;;25.70;98.30;;;;;;4143859;28;20466;-71
2021/06/19 05:49:31;;;;;;;35.97;32.73;;;25.60;98.30;;;;;;4145747;28;20466;-72
2021/06/19 05:51:38;;;;;;;36.70;33.47;;;25.70;98.30;;;;;;4145483;28;20478;-72
2021/06/19 05:53:40;;;;;;;36.03;32.60;;;25.70;98.30;;;;;;4144953;28;20503;-72
2021/06/19 05:55:43;;;;;;;37.17;33.73;;;25.80;98.30;;;;;;4145737;28;20466;-72
2021/06/19 05:57:46;;;;;;;34.37;31.37;;;25.90;98.30;;;;;;4144475;28;20992;-72
2021/06/19 05:59:50;;;;;;;33.43;30.50;;;25.90;98.30;;;;;;4144779;28;20500;-72
2021/06/19 06:01:53;;;;;;;33.07;29.80;;;26.00;98.30;;;;;;4145088;28;20969;-72
2021/06/19 06:03:56;;;;;;;30.77;28.17;;;26.10;98.30;;;;;;4145395;28;20584;-72
2021/06/19 06:05:59;;;;;;;29.60;27.20;;;26.10;98.30;;;;;;4145443;28;20473;-72
2021/06/19 06:08:02;;;;;;;29.97;27.20;;;26.20;98.30;;;;;;4144521;28;20526;-72
2021/06/19 06:10:06;;;;;;;30.00;27.50;;;26.20;98.30;;;;;;4145431;28;20504;-72
2021/06/19 07:44:10;;;;;;;12.93;11.63;;;27.90;98.30;;;;;;4060874;29;22048;-86
2021/06/19 07:46:18;;;;;;;13.47;11.70;;;27.80;98.30;;;;;;4050732;29;20700;-86
2021/06/19 07:48:34;;;;;;;15.07;13.50;;;27.80;98.30;;;;;;4123143;28;21002;-87
2021/06/19 07:50:43;;;;;;;10.40;8.60;;;27.90;98.30;;;;;;4128748;28;20962;-85
2021/06/19 07:52:50;;;;;;;9.17;8.23;;;27.80;97.30;;;;;;4129322;28;20501;-83
2021/06/19 07:54:54;;;;;;;9.13;7.93;;;27.70;96.60;;;;;;4129467;28;21251;-86
2021/06/19 07:56:57;;;;;;;7.63;7.03;;;27.60;95.20;;;;;;4129640;28;20944;-85
2021/06/19 07:59:00;;;;;;;7.63;6.93;;;27.50;95.90;;;;;;4130601;28;20497;-85
2021/06/19 08:01:03;;;;;;;8.83;7.50;;;27.60;95.50;;;;;;4128970;28;20849;-86
2021/06/19 08:03:13;;;;;;;7.67;6.77;;;27.60;95.80;;;;;;4130217;28;20494;-85
2021/06/19 08:05:16;;;;;;;8.13;6.93;;;27.70;95.00;;;;;;4129771;28;20474;-86
2021/06/19 08:07:19;;;;;;;7.93;6.00;;;27.80;93.70;;;;;;4129790;28;20471;-86
2021/06/19 08:09:26;;;;;;;6.80;6.10;;;27.70;92.90;;;;;;4134928;28;20470;-85
2021/06/19 08:11:32;;;;;;;5.77;5.13;;;27.80;93.40;;;;;;4131237;28;20466;-84
2021/06/19 08:13:35;;;;;;;5.27;4.77;;;27.80;90.20;;;;;;4130112;28;20498;-85
2021/06/19 08:15:39;;;;;;;6.03;5.43;;;27.70;89.90;;;;;;4129444;28;20479;-84
2021/06/19 08:17:42;;;;;;;6.17;5.07;;;27.70;90.50;;;;;;4129505;28;20475;-84
2021/06/19 08:19:46;;;;;;;5.30;4.70;;;27.80;90.60;;;;;;4130428;28;20489;-83
2021/06/19 08:21:49;;;;;;;5.57;5.07;;;27.90;89.90;;;;;;4133516;28;20476;-84
2021/06/19 08:23:52;;;;;;;5.43;5.03;;;28.00;89.60;;;;;;4129145;28;21025;-84
2021/06/19 08:25:55;;;;;;;6.57;5.90;;;28.00;89.80;;;;;;4132254;28;20471;-84
2021/06/19 08:28:00;;;;;;;5.47;4.97;;;28.10;89.90;;;;;;4134165;28;21169;-85
2021/06/19 08:30:03;;;;;;;4.93;4.53;;;28.10;88.90;;;;;;4127914;28;20458;-83
2021/06/19 08:32:08;;;;;;;5.60;4.90;;;28.00;89.90;;;;;;4129248;28;20469;-84
2021/06/19 08:34:11;;;;;;;4.93;4.43;;;28.00;89.30;;;;;;4131910;28;20598;-86
2021/06/19 08:36:16;;;;;;;5.90;5.00;;;28.00;89.20;;;;;;4132219;28;20471;-83
2021/06/19 08:38:19;;;;;;;6.53;4.70;;;27.90;88.90;;;;;;4132884;28;20477;-83
2021/06/19 08:40:22;;;;;;;5.43;4.20;;;28.00;88.80;;;;;;4130504;28;20631;-84
2021/06/19 08:42:25;;;;;;;4.87;4.17;;;28.00;88.60;;;;;;4135147;28;20485;-83
2021/06/19 08:44:30;;;;;;;6.10;5.00;;;28.00;88.20;;;;;;4134667;28;20577;-83
2021/06/19 08:46:41;;;;;;;4.80;4.00;;;28.20;87.70;;;;;;4140940;28;20480;-85
2021/06/19 08:48:46;;;;;;;4.47;3.73;;;28.30;87.00;;;;;;4150008;28;20810;-84
2021/06/19 08:50:49;;;;;;;5.30;4.10;;;28.40;87.00;;;;;;4150173;28;20461;-83
2021/06/19 08:52:53;;;;;;;4.53;4.20;;;28.40;87.00;;;;;;4149211;28;20827;-83
2021/06/19 08:54:56;;;;;;;4.20;3.90;;;28.50;87.40;;;;;;4150007;28;20932;-83
2021/06/19 08:56:59;;;;;;;6.70;4.43;;;28.40;87.10;;;;;;4150224;28;20474;-83
2021/06/19 08:59:03;;;;;;;6.10;4.60;;;28.40;87.50;;;;;;4148489;28;20458;-83
2021/06/19 09:01:06;;;;;;;5.07;4.47;;;28.60;88.10;;;;;;4149431;28;21039;-84
2021/06/19 09:03:21;;;;;;;8.57;7.73;;;28.50;87.70;;;;;;4150098;28;20504;-83
2021/06/19 09:05:29;;;;;;;5.50;5.00;;;28.60;88.30;;;;;;4151226;28;20932;-84
2021/06/19 09:07:46;;;;;;;5.80;4.30;;;29.00;87.50;;;;;;4151467;28;20472;-83
2021/06/19 09:09:52;;;;;;;5.30;4.63;;;28.80;87.00;;;;;;4151243;28;20485;-83
2021/06/19 09:11:56;;;;;;;4.60;4.20;;;28.60;87.10;;;;;;4150581;28;20466;-83
2021/06/19 09:14:01;;;;;;;4.57;4.00;;;28.50;87.80;;;;;;4148830;28;20928;-84
2021/06/19 09:16:04;;;;;;;4.53;4.10;;;28.70;86.80;;;;;;4146692;28;20462;-84
2021/06/19 09:18:17;;;;;;;6.10;5.13;;;28.80;87.10;;;;;;4148082;28;20474;-84
2021/06/19 09:20:33;;;;;;;4.53;4.13;;;29.00;87.40;;;;;;4148843;28;20476;-83
2021/06/19 09:22:36;;;;;;;5.47;4.60;;;29.00;85.80;;;;;;4139976;28;20462;-85
2021/06/19 09:24:48;;;;;;;5.43;4.93;;;29.00;86.20;;;;;;4147867;28;21007;-86
2021/06/19 09:26:54;;;;;;;6.87;4.77;;;29.10;85.90;;;;;;4147308;28;21244;-85
2021/06/19 09:29:09;;;;;;;5.50;4.33;;;28.80;86.40;;;;;;4148219;28;21173;-84
2021/06/19 09:31:12;;;;;;;5.80;5.30;;;28.50;86.60;;;;;;4148708;28;20472;-85
2021/06/19 09:33:15;;;;;;;5.87;5.27;;;28.40;87.90;;;;;;4148759;28;20476;-84
2021/06/19 09:35:24;;;;;;;6.07;5.43;;;28.60;88.20;;;;;;4147506;28;21031;-84
2021/06/19 09:37:37;;;;;;;7.47;5.47;;;28.90;87.50;;;;;;4147843;28;20469;-86
2021/06/19 09:39:40;;;;;;;5.47;4.97;;;28.70;86.60;;;;;;4145634;28;20468;-84
2021/06/19 09:41:49;;;;;;;4.80;4.40;;;28.10;86.90;;;;;;4146732;28;20469;-84
2021/06/19 09:43:53;;;;;;;5.63;4.93;;;27.80;87.90;;;;;;4147787;28;20489;-84
2021/06/19 09:46:01;;;;;;;5.83;4.70;;;28.10;88.10;;;;;;4146196;28;20502;-85
2021/06/19 09:48:06;;;;;;;5.67;5.10;;;28.40;87.10;;;;;;4147939;28;20470;-83
2021/06/19 09:50:10;;;;;;;5.93;5.37;;;28.40;87.70;;;;;;4148166;28;20504;-83
2021/06/19 09:52:13;;;;;;;6.27;5.27;;;28.60;88.00;;;;;;4146902;28;20966;-84
2021/06/19 09:54:17;;;;;;;5.00;4.60;;;28.60;87.60;;;;;;4146308;28;20565;-84
2021/06/19 09:56:24;;;;;;;7.50;4.30;;;28.80;87.50;;;;;;4146455;28;20470;-84
2021/06/19 09:58:38;;;;;;;5.03;4.63;;;28.60;86.10;;;;;;4142636;28;20473;-83
2021/06/19 10:00:43;;;;;;;6.87;4.50;;;28.50;86.90;;;;;;4147264;28;20549;-84
2021/06/19 10:02:47;;;;;;;5.50;4.43;;;28.80;85.20;;;;;;4143585;28;20478;-82
2021/06/19 10:04:52;;;;;;;4.53;4.13;;;28.60;84.70;;;;;;4145147;28;20592;-83
2021/06/19 10:06:56;;;;;;;4.70;4.30;;;28.40;84.70;;;;;;4145258;28;20950;-82
2021/06/19 10:09:00;;;;;;;5.30;4.80;;;28.40;85.40;;;;;;4145743;28;20458;-82
2021/06/19 10:11:03;;;;;;;5.17;4.70;;;28.60;85.80;;;;;;4147705;28;20474;-82
2021/06/19 10:13:06;;;;;;;4.93;4.47;;;28.90;85.90;;;;;;4143254;28;20476;-83
2021/06/19 10:15:11;;;;;;;5.40;4.27;;;29.00;85.70;;;;;;4147166;28;20470;-82
2021/06/19 10:17:19;;;;;;;5.10;4.70;;;29.30;85.20;;;;;;4148032;28;20476;-83
2021/06/19 10:19:26;;;;;;;5.30;4.80;;;29.30;83.70;;;;;;4147838;28;20548;-83
2021/06/19 10:21:29;;;;;;;5.70;4.67;;;28.90;85.10;;;;;;4144906;28;20828;-83
2021/06/19 10:23:32;;;;;;;6.43;4.63;;;28.60;85.20;;;;;;4148089;28;20498;-83
2021/06/19 10:25:43;;;;;;;7.30;5.90;;;28.70;85.30;;;;;;4147024;28;20600;-83
2021/06/19 10:27:48;;;;;;;8.37;5.73;;;28.70;85.10;;;;;;4146743;28;20501;-83
2021/06/19 10:29:53;;;;;;;6.23;5.00;;;29.10;83.70;;;;;;4147187;28;20482;-84
2021/06/19 10:31:56;;;;;;;5.17;4.70;;;29.20;83.30;;;;;;4145510;28;20477;-83
2021/06/19 10:34:19;;;;;;;5.50;4.70;;;29.00;82.80;;;;;;4146439;28;20510;-84
2021/06/19 10:36:37;;;;;;;5.80;5.20;;;28.80;83.60;;;;;;4146333;28;20532;-83
2021/06/19 10:38:50;;;;;;;14.97;11.13;;;28.50;84.30;;;;;;4144480;28;20481;-82
2021/06/19 10:40:54;;;;;;;5.30;4.90;;;28.90;84.20;;;;;;4146822;28;20484;-82
2021/06/19 10:43:19;;;;;;;7.33;5.33;;;29.10;83.70;;;;;;4144273;28;20461;-82
2021/06/19 10:45:24;;;;;;;5.27;4.87;;;29.00;83.30;;;;;;4146503;28;20945;-82
2021/06/19 10:47:32;;;;;;;5.23;4.83;;;28.90;83.70;;;;;;4147036;28;20477;-82
2021/06/19 10:49:45;;;;;;;5.23;4.83;;;28.60;84.20;;;;;;4147925;28;20804;-82
2021/06/19 10:51:48;;;;;;;6.40;4.90;;;28.80;83.90;;;;;;4147660;28;20458;-83
2021/06/19 10:54:12;;;;;;;6.00;5.27;;;28.80;84.80;;;;;;4146693;28;20490;-82
2021/06/19 10:56:14;;;;;;;4.67;4.27;;;29.00;83.80;;;;;;4147036;28;20481;-83
2021/06/19 10:58:18;;;;;;;4.63;4.23;;;29.10;82.80;;;;;;4147075;28;20461;-82
2021/06/19 11:00:29;;;;;;;4.93;4.50;;;28.90;83.90;;;;;;4147494;28;20466;-82
2021/06/19 11:02:51;;;;;;;5.33;4.93;;;29.00;83.50;;;;;;4145305;28;20895;-82
2021/06/19 11:04:55;;;;;;;6.40;5.20;;;28.90;84.50;;;;;;4144625;28;20501;-83
2021/06/19 11:06:58;;;;;;;4.73;4.33;;;29.00;84.30;;;;;;4145418;28;20524;-82
2021/06/19 11:09:05;;;;;;;4.80;4.20;;;29.40;83.70;;;;;;4145493;28;20474;-82
2021/06/19 11:11:08;;;;;;;5.10;4.00;;;29.80;82.40;;;;;;4145368;28;20470;-82
2021/06/19 11:13:42;;;;;;;5.47;4.97;;;30.00;82.30;;;;;;4146124;28;20477;-83
2021/06/19 11:15:45;;;;;;;5.60;4.07;;;30.00;81.30;;;;;;4146661;28;20474;-82
2021/06/19 11:17:48;;;;;;;4.40;4.00;;;29.70;81.80;;;;;;4144982;28;20466;-82
2021/06/19 11:19:55;;;;;;;4.30;3.97;;;29.50;82.80;;;;;;4146524;28;20497;-83
2021/06/19 11:22:27;;;;;;;5.20;4.20;;;30.20;81.80;;;;;;4146427;28;20822;-83
2021/06/19 11:24:30;;;;;;;8.63;4.40;;;30.60;80.00;;;;;;4141751;28;20489;-83
2021/06/19 11:26:47;;;;;;;54.37;46.47;;;30.80;79.60;;;;;;4145745;28;20458;-82
2021/06/19 11:28:50;;;;;;;4.33;3.93;;;30.80;80.40;;;;;;4144291;28;21095;-82
2021/06/19 11:30:56;;;;;;;4.07;3.77;;;30.80;79.70;;;;;;4146387;28;20470;-83
2021/06/19 11:33:27;;;;;;;4.30;3.90;;;31.10;79.00;;;;;;4145459;28;20531;-83
2021/06/19 11:35:30;;;;;;;4.10;3.80;;;30.70;79.20;;;;;;4144653;28;20466;-83
2021/06/19 11:37:57;;;;;;;4.00;3.67;;;30.80;79.00;;;;;;4142183;28;20992;-83
2021/06/19 11:40:00;;;;;;;5.73;5.23;;;31.10;78.40;;;;;;4145879;28;20465;-82
2021/06/19 11:42:03;;;;;;;4.63;4.03;;;32.10;76.20;;;;;;4145702;28;20458;-83
2021/06/19 11:44:20;;;;;;;4.17;3.77;;;32.20;74.70;;;;;;4145420;28;20499;-83
2021/06/19 11:46:25;;;;;;;6.73;6.23;;;31.30;75.90;;;;;;4145062;28;20485;-83
2021/06/19 11:48:28;;;;;;;4.50;4.20;;;31.30;77.30;;;;;;4144274;28;20466;-83
2021/06/19 11:50:31;;;;;;;5.90;3.93;;;32.00;76.10;;;;;;4143778;28;20477;-83
2021/06/19 11:52:34;;;;;;;4.53;4.13;;;32.50;74.50;;;;;;4143733;28;20568;-83
2021/06/19 11:54:43;;;;;;;3.70;3.40;;;32.50;74.00;;;;;;4143611;28;20486;-83
2021/06/19 11:56:46;;;;;;;19.57;17.63;;;32.20;75.00;;;;;;4143512;28;20461;-83
2021/06/19 11:58:50;;;;;;;8.50;7.70;;;32.30;74.80;;;;;;4143304;28;21086;-83
2021/06/19 12:00:53;;;;;;;4.32;3.92;;;32.70;74.80;;;;;;4143200;28;20473;-83
2021/06/19 12:03:00;;;;;;;4.15;3.75;;;32.90;72.90;;;;;;4143693;28;20557;-83
2021/06/19 12:05:11;;;;;;;4.90;3.80;;;32.60;73.60;;;;;;4144665;28;20516;-83
2021/06/19 12:07:24;;;;;;;3.75;3.47;;;32.40;74.40;;;;;;4144909;28;20474;-83
2021/06/19 12:09:30;;;;;;;5.25;4.80;;;32.20;74.10;;;;;;4144503;28;20466;-83
2021/06/19 12:11:36;;;;;;;8.77;6.20;;;32.00;74.30;;;;;;4144701;28;20469;-83
2021/06/19 12:13:42;;;;;;;5.30;4.63;;;32.20;74.00;;;;;;4144651;28;20481;-83
2021/06/19 12:15:51;;;;;;;4.17;3.80;;;32.10;73.90;;;;;;4146017;28;20457;-83
2021/06/19 12:17:55;;;;;;;3.83;3.53;;;31.90;73.50;;;;;;4147572;28;20473;-82
2021/06/19 12:19:57;;;;;;;4.10;3.70;;;32.00;73.30;;;;;;4148147;28;20469;-83
2021/06/19 12:22:03;;;;;;;3.73;3.43;;;32.20;73.30;;;;;;4147678;28;20468;-83
2021/06/19 12:24:21;;;;;;;5.17;3.60;;;32.20;73.50;;;;;;4147437;28;20489;-83
2021/06/19 12:26:23;;;;;;;7.83;3.97;;;32.60;73.70;;;;;;4147977;28;20539;-83
2021/06/19 12:28:28;;;;;;;6.47;3.83;;;32.80;73.20;;;;;;4147200;28;20477;-83
2021/06/19 12:30:31;;;;;;;4.43;4.13;;;33.30;72.10;;;;;;4147333;28;20473;-82
2021/06/19 12:32:38;;;;;;;13.82;12.60;;;33.20;71.60;;;;;;4147372;28;20488;-83
2021/06/19 12:34:42;;;;;;;4.95;4.50;;;33.30;71.90;;;;;;4147597;28;20493;-83
2021/06/19 12:36:46;;;;;;;3.90;3.55;;;33.80;71.60;;;;;;4147110;28;20484;-83
2021/06/19 12:38:49;;;;;;;6.68;3.75;;;34.00;69.90;;;;;;4146975;28;20470;-83
2021/06/19 12:40:52;;;;;;;3.20;3.00;;;33.80;70.60;;;;;;4147716;28;20471;-83
2021/06/19 12:43:07;;;;;;;3.47;3.28;;;33.90;70.50;;;;;;4147476;28;20470;-83
2021/06/19 12:45:14;;;;;;;3.60;3.40;;;34.10;69.10;;;;;;4147336;28;20857;-83
2021/06/19 12:47:18;;;;;;;3.65;3.35;;;33.60;69.60;;;;;;4147553;28;20484;-83
2021/06/19 12:49:21;;;;;;;4.28;3.65;;;33.00;70.80;;;;;;4147540;28;20473;-83
2021/06/19 12:51:32;;;;;;;4.10;3.70;;;33.10;71.60;;;;;;4147456;28;20469;-83
2021/06/19 12:53:37;;;;;;;4.55;4.13;;;33.30;72.00;;;;;;4147339;28;20524;-83
2021/06/19 12:55:41;;;;;;;4.82;3.38;;;34.00;71.10;;;;;;4147173;28;20461;-83
2021/06/19 12:57:44;;;;;;;3.38;3.08;;;34.50;68.50;;;;;;4146586;28;20473;-83
2021/06/19 12:59:48;;;;;;;3.78;3.45;;;34.90;68.10;;;;;;4146939;28;20480;-83
2021/06/19 13:02:05;;;;;;;3.85;3.55;;;35.10;67.00;;;;;;4146803;28;20473;-83
2021/06/19 13:04:08;;;;;;;5.50;3.42;;;35.50;67.10;;;;;;4145669;28;20714;-83
2021/06/19 13:06:15;;;;;;;10.43;9.52;;;35.90;65.60;;;;;;4146746;28;20292;-82
2021/06/19 13:08:19;;;;;;;6.15;5.55;;;35.80;65.60;;;;;;4146592;28;20214;-83
2021/06/19 13:10:31;;;;;;;9.45;8.55;;;36.20;65.50;;;;;;4146806;28;20218;-83
2021/06/19 13:12:47;;;;;;;4.85;3.58;;;36.50;66.20;;;;;;4146741;28;20662;-83
2021/06/19 13:15:05;;;;;;;3.90;3.50;;;36.80;63.90;;;;;;4146570;28;20227;-83
2021/06/19 13:17:17;;;;;;;4.15;3.72;;;37.10;63.30;;;;;;4146511;28;20243;-83
2021/06/19 13:19:20;;;;;;;12.43;11.38;;;37.10;62.70;;;;;;4146504;28;20210;-83
2021/06/19 13:21:23;;;;;;;6.47;5.88;;;36.70;63.50;;;;;;4146491;28;20211;-83
2021/06/19 13:23:26;;;;;;;20.05;18.42;;;36.60;63.80;;;;;;4146423;28;20269;-83
2021/06/19 13:25:54;;;;;;;5.65;4.70;;;36.70;64.10;;;;;;4146395;28;20225;-83
2021/06/19 13:27:58;;;;;;;4.03;3.72;;;37.20;64.40;;;;;;4145522;28;20272;-83
2021/06/19 13:30:06;;;;;;;3.88;3.58;;;37.40;63.00;;;;;;4146590;28;20223;-83
2021/06/19 13:32:10;;;;;;;3.83;3.45;;;37.60;63.00;;;;;;4146710;28;20509;-83
2021/06/19 13:34:22;;;;;;;5.95;5.40;;;37.50;61.70;;;;;;4146492;28;20321;-83
2021/06/19 13:36:28;;;;;;;7.72;7.13;;;37.30;62.80;;;;;;4146400;28;20238;-83
2021/06/19 13:38:50;;;;;;;4.00;3.60;;;37.10;62.70;;;;;;4146206;28;20269;-84
2021/06/19 13:40:52;;;;;;;3.45;3.15;;;36.90;63.00;;;;;;4146181;28;20214;-83
2021/06/19 13:42:57;;;;;;;3.47;3.00;;;37.50;62.20;;;;;;4146149;28;20277;-84
2021/06/19 13:45:00;;;;;;;3.40;3.20;;;37.60;61.90;;;;;;4146175;28;20210;-83
2021/06/19 13:47:05;;;;;;;3.50;3.20;;;37.60;61.10;;;;;;4145884;28;20214;-84
2021/06/19 13:49:08;;;;;;;3.33;3.03;;;37.50;60.80;;;;;;4146282;28;20225;-83
2021/06/19 13:51:12;;;;;;;3.55;3.00;;;37.60;60.90;;;;;;4145398;28;20211;-83
2021/06/19 13:53:16;;;;;;;4.13;3.40;;;37.70;60.80;;;;;;4146023;28;20214;-83
2021/06/19 13:55:19;;;;;;;3.60;3.30;;;38.10;60.00;;;;;;4146089;28;20233;-84
2021/06/19 13:57:22;;;;;;;3.60;3.40;;;38.20;59.90;;;;;;4146134;28;20751;-83
2021/06/19 13:59:26;;;;;;;4.70;3.40;;;38.10;60.20;;;;;;4145954;28;20218;-83
2021/06/19 14:01:29;;;;;;;4.70;3.28;;;37.90;59.70;;;;;;4146326;28;20215;-83
2021/06/19 14:03:33;;;;;;;3.95;3.60;;;36.70;61.30;;;;;;4146424;28;20242;-83
2021/06/19 14:05:36;;;;;;;3.70;3.30;;;35.60;63.00;;;;;;4146340;28;20294;-83
2021/06/19 14:07:40;;;;;;;3.50;3.20;;;35.60;64.50;;;;;;4145786;28;20214;-83
2021/06/19 14:09:43;;;;;;;3.58;3.28;;;35.80;63.20;;;;;;4145821;28;20213;-83
2021/06/19 14:11:46;;;;;;;3.50;3.15;;;35.90;63.30;;;;;;4146211;28;20616;-83
2021/06/19 14:13:49;;;;;;;4.05;3.70;;;35.90;63.60;;;;;;4145628;28;20227;-83
2021/06/19 14:15:54;;;;;;;3.70;3.40;;;35.70;63.70;;;;;;4146019;28;20214;-83
2021/06/19 14:17:57;;;;;;;3.38;3.17;;;35.20;64.20;;;;;;4145962;28;20662;-83
2021/06/19 14:20:05;;;;;;;4.50;3.83;;;34.90;65.20;;;;;;4146007;28;20219;-83
2021/06/19 14:22:10;;;;;;;4.15;3.63;;;34.40;65.90;;;;;;4145783;28;20223;-83
2021/06/19 14:24:15;;;;;;;5.20;3.90;;;34.10;66.10;;;;;;4145699;28;20489;-83
2021/06/19 14:26:21;;;;;;;6.20;3.67;;;33.90;67.00;;;;;;4146261;28;20552;-83
2021/06/19 14:28:25;;;;;;;3.90;3.60;;;34.10;66.80;;;;;;4145162;28;20461;-83
2021/06/19 14:30:28;;;;;;;3.70;3.40;;;34.30;67.30;;;;;;4146142;28;20949;-83
2021/06/19 14:32:34;;;;;;;7.72;3.53;;;34.30;67.00;;;;;;4145617;28;20516;-83
2021/06/19 14:41:15;;;;;;;16.10;14.57;;;33.40;68.90;;;;;;4177647;28;20470;-89
